Time;durP1;ratioP1;P1;durP2;ratioP2;P2;SDS_P1;SDS_P2;PMS_P1;PMS_P2;Temp;Humidity;BMP_temperature;BMP_pressure;BME280_temperature;BME280_humidity;BME280_pressure;Samples;Min_cycle;Max_cycle;Signal;HPM_P1;HPM_P2
2022/05/03 00:02:20;;;;;;;17.37;12.83;;;;;;;;;;5044362;28;20128;-70
2022/05/03 00:05:08;;;;;;;16.73;12.10;;;;;;;;;;5037453;28;20102;-69
2022/05/03 00:07:52;;;;;;;17.33;12.60;;;;;;;;;;5033485;28;20503;-70
2022/05/03 00:10:19;;;;;;;;;;;;;;;;;;5035406;28;20028;-70
2022/05/03 00:12:51;;;;;;;15.77;12.70;;;;;;;;;;5036302;28;19913;-70
2022/05/03 00:15:19;;;;;;;21.37;13.90;;;;;;;;;;5046481;28;20032;-70
2022/05/03 00:17:46;;;;;;;17.20;13.37;;;;;;;;;;5053338;28;20093;-70
2022/05/03 00:20:13;;;;;;;16.23;13.00;;;;;;;;;;5041278;28;20112;-70
2022/05/03 00:22:40;;;;;;;18.83;14.23;;;;;;;;;;5043409;28;20025;-70
2022/05/03 00:25:06;;;;;;;13.27;11.03;;;;;;;;;;5039617;28;20028;-70
2022/05/03 00:27:34;;;;;;;20.17;12.20;;;;;;;;;;5039292;28;20037;-70
2022/05/03 00:30:01;;;;;;;18.87;12.50;;;;;;;;;;5040979;28;20048;-70
2022/05/03 00:32:29;;;;;;;17.57;11.77;;;;;;;;;;5046994;28;20029;-70
2022/05/03 00:35:00;;;;;;;15.67;12.13;;;;;;;;;;5050787;28;20025;-70
2022/05/03 00:37:28;;;;;;;18.80;13.10;;;;;;;;;;5036410;28;20476;-70
2022/05/03 00:39:55;;;;;;;17.63;12.70;;;;;;;;;;5033228;28;20026;-70
2022/05/03 00:42:23;;;;;;;15.13;12.07;;;;;;;;;;5041329;28;20051;-70
2022/05/03 00:45:10;;;;;;;14.50;11.73;;;;;;;;;;5042716;28;20056;-70
2022/05/03 00:47:40;;;;;;;17.87;11.40;;;;;;;;;;5047556;28;20025;-70
2022/05/03 00:50:11;;;;;;;19.47;12.87;;;;;;;;;;5033594;28;20040;-70
2022/05/03 00:52:50;;;;;;;19.60;13.20;;;;;;;;;;5038590;28;20021;-69
2022/05/03 00:55:22;;;;;;;15.07;13.07;;;;;;;;;;5033001;28;20021;-70
2022/05/03 00:58:09;;;;;;;18.00;12.40;;;;;;;;;;5034407;28;20392;-70
2022/05/03 01:00:40;;;;;;;20.63;14.07;;;;;;;;;;5032602;28;20037;-70
2022/05/03 01:03:13;;;;;;;17.77;12.47;;;;;;;;;;5032968;28;20410;-69
2022/05/03 01:05:46;;;;;;;18.07;13.37;;;;;;;;;;5050326;28;20024;-70
2022/05/03 01:08:22;;;;;;;17.20;12.40;;;;;;;;;;5040936;28;20029;-70
2022/05/03 01:10:52;;;;;;;17.20;11.93;;;;;;;;;;5040614;28;20555;-70
2022/05/03 01:13:30;;;;;;;19.83;13.17;;;;;;;;;;5038417;28;20032;-70
2022/05/03 01:16:06;;;;;;;20.10;12.43;;;;;;;;;;5027656;28;20022;-70
2022/05/03 01:18:46;;;;;;;19.17;12.60;;;;;;;;;;5030170;28;20484;-70
2022/05/03 01:21:13;;;;;;;16.40;12.70;;;;;;;;;;5052664;28;20391;-70
2022/05/03 01:23:46;;;;;;;18.13;12.93;;;;;;;;;;5050869;28;20122;-70
2022/05/03 01:26:12;;;;;;;20.20;13.87;;;;;;;;;;5043802;28;20025;-70
2022/05/03 01:28:58;;;;;;;18.23;13.50;;;;;;;;;;5039703;28;20036;-69
2022/05/03 01:31:25;;;;;;;22.00;13.80;;;;;;;;;;5046255;28;20033;-69
2022/05/03 01:33:53;;;;;;;24.50;15.90;;;;;;;;;;5043190;28;20025;-69
2022/05/03 01:36:34;;;;;;;16.23;13.00;;;;;;;;;;5034741;28;20033;-69
2022/05/03 01:39:19;;;;;;;18.77;14.90;;;;;;;;;;5031864;28;20026;-69
2022/05/03 01:41:49;;;;;;;17.67;13.93;;;;;;;;;;5047802;28;20041;-69
2022/05/03 01:44:16;;;;;;;19.73;14.27;;;;;;;;;;5039055;28;20364;-70
2022/05/03 01:46:43;;;;;;;23.57;13.67;;;;;;;;;;5035258;28;20472;-70
2022/05/03 01:52:16;;;;;;;25.10;14.20;;;;;;;;;;5031470;28;20075;-70
2022/05/03 01:55:03;;;;;;;17.70;13.30;;;;;;;;;;5036026;28;20055;-71
2022/05/03 01:57:29;;;;;;;;;;;;;;;;;;5030900;28;20170;-72
2022/05/03 01:59:59;;;;;;;19.03;13.00;;;;;;;;;;5032506;28;19912;-72
2022/05/03 02:02:44;;;;;;;18.77;13.33;;;;;;;;;;5041761;28;20031;-72
2022/05/03 02:05:20;;;;;;;18.30;13.73;;;;;;;;;;5050692;28;20111;-72
2022/05/03 02:07:55;;;;;;;20.13;13.83;;;;;;;;;;5040133;28;20025;-72
2022/05/03 02:10:41;;;;;;;21.60;14.10;;;;;;;;;;5032191;28;20025;-72
2022/05/03 02:14:43;;;;;;;19.17;13.00;;;;;;;;;;5032135;28;20392;-72
2022/05/03 02:16:28;;;;;;;24.38;14.15;;;;;;;;;;5026737;28;20478;-71
2022/05/03 02:19:15;;;;;;;21.33;14.37;;;;;;;;;;5027123;28;20018;-72
2022/05/03 02:21:53;;;;;;;18.73;14.73;;;;;;;;;;4995986;28;20057;-72
2022/05/03 02:24:28;;;;;;;18.33;13.67;;;;;;;;;;5026880;28;20416;-73
2022/05/03 02:26:55;;;;;;;22.80;15.23;;;;;;;;;;5031919;28;20372;-72
2022/05/03 02:29:34;;;;;;;23.80;13.17;;;;;;;;;;5031969;28;20025;-72
2022/05/03 02:32:05;;;;;;;19.70;14.50;;;;;;;;;;5032025;28;20534;-72
2022/05/03 02:34:32;;;;;;;21.80;13.23;;;;;;;;;;5036399;28;20380;-72
2022/05/03 02:37:15;;;;;;;24.57;14.47;;;;;;;;;;5045003;28;20037;-72
2022/05/03 02:39:48;;;;;;;17.53;12.53;;;;;;;;;;5030504;28;20030;-69
2022/05/03 02:42:15;;;;;;;17.20;11.90;;;;;;;;;;5028874;28;20041;-72
2022/05/03 02:44:41;;;;;;;21.27;12.93;;;;;;;;;;5041295;28;20024;-72
2022/05/03 02:47:20;;;;;;;19.23;12.80;;;;;;;;;;5050457;28;20029;-72
2022/05/03 02:49:47;;;;;;;20.47;13.33;;;;;;;;;;5055192;28;20471;-72
2022/05/03 02:52:26;;;;;;;22.10;14.23;;;;;;;;;;5050668;28;20435;-72
2022/05/03 02:54:56;;;;;;;20.57;12.80;;;;;;;;;;5035404;28;20109;-72
2022/05/03 02:57:31;;;;;;;16.60;12.27;;;;;;;;;;5035012;28;20025;-73
2022/05/03 03:03:01;;;;;;;21.73;13.53;;;;;;;;;;5030211;28;20044;-72
2022/05/03 03:05:28;;;;;;;18.73;13.33;;;;;;;;;;5029818;28;20088;-72
2022/05/03 03:07:59;;;;;;;23.80;14.97;;;;;;;;;;5030011;28;20476;-72
2022/05/03 03:10:31;;;;;;;17.20;13.20;;;;;;;;;;5032207;28;20101;-72
2022/05/03 03:13:11;;;;;;;18.40;13.00;;;;;;;;;;5034991;28;20060;-72
2022/05/03 03:15:40;;;;;;;18.10;13.47;;;;;;;;;;5034968;28;20018;-72
2022/05/03 03:18:11;;;;;;;16.23;12.63;;;;;;;;;;5034561;28;20052;-72
2022/05/03 03:20:43;;;;;;;18.53;12.23;;;;;;;;;;5034902;28;20035;-72
2022/05/03 03:23:14;;;;;;;15.63;11.33;;;;;;;;;;5031589;28;20025;-72
2022/05/03 03:25:43;;;;;;;15.93;11.30;;;;;;;;;;5029682;28;20021;-72
2022/05/03 03:28:15;;;;;;;14.27;11.53;;;;;;;;;;5029721;28;20112;-72
2022/05/03 03:30:42;;;;;;;16.70;11.90;;;;;;;;;;5049614;28;20024;-72
2022/05/03 03:33:09;;;;;;;20.53;13.20;;;;;;;;;;5052171;28;20017;-72
2022/05/03 03:35:37;;;;;;;17.37;11.40;;;;;;;;;;5052947;28;20040;-72
2022/05/03 03:38:04;;;;;;;17.93;13.27;;;;;;;;;;5040020;28;20034;-72
2022/05/03 03:40:31;;;;;;;15.83;12.60;;;;;;;;;;5042415;28;20025;-72
2022/05/03 03:42:58;;;;;;;16.93;12.73;;;;;;;;;;5054260;28;20068;-72
2022/05/03 03:45:24;;;;;;;17.20;13.00;;;;;;;;;;5039322;28;20053;-72
2022/05/03 03:47:52;;;;;;;15.23;12.30;;;;;;;;;;5029436;28;20431;-72
2022/05/03 03:50:19;;;;;;;17.93;12.73;;;;;;;;;;5035789;28;20024;-72
2022/05/03 03:52:47;;;;;;;20.50;11.80;;;;;;;;;;5039903;28;20104;-72
2022/05/03 03:55:14;;;;;;;16.57;12.37;;;;;;;;;;5031446;28;20094;-72
2022/05/03 03:57:41;;;;;;;18.03;12.20;;;;;;;;;;5034244;28;20033;-72
2022/05/03 04:00:12;;;;;;;15.40;11.27;;;;;;;;;;5033976;28;20029;-72
2022/05/03 04:02:41;;;;;;;15.10;10.70;;;;;;;;;;5034269;28;20022;-72
2022/05/03 04:05:08;;;;;;;14.23;10.53;;;;;;;;;;5034144;28;20029;-68
2022/05/03 04:07:35;;;;;;;17.30;11.67;;;;;;;;;;5031220;28;20030;-70
2022/05/03 04:10:02;;;;;;;16.67;12.30;;;;;;;;;;5033381;28;20037;-72
2022/05/03 04:12:29;;;;;;;17.83;12.07;;;;;;;;;;5048489;28;20086;-72
2022/05/03 04:14:56;;;;;;;16.33;12.97;;;;;;;;;;5048762;28;20074;-71
2022/05/03 04:17:23;;;;;;;21.00;12.20;;;;;;;;;;5048352;28;20146;-72
2022/05/03 04:19:49;;;;;;;16.57;11.57;;;;;;;;;;5053887;28;20032;-72
2022/05/03 04:22:29;;;;;;;17.77;12.40;;;;;;;;;;5053214;28;20472;-72
2022/05/03 04:24:56;;;;;;;18.00;13.50;;;;;;;;;;5042157;28;20032;-72
2022/05/03 04:27:23;;;;;;;17.30;13.23;;;;;;;;;;5031671;28;20382;-72
2022/05/03 04:29:50;;;;;;;17.37;12.73;;;;;;;;;;5031279;28;20025;-72
2022/05/03 04:32:17;;;;;;;19.93;13.47;;;;;;;;;;5027022;28;20100;-72
2022/05/03 04:34:44;;;;;;;17.27;12.50;;;;;;;;;;5026991;28;20017;-72
2022/05/03 04:37:10;;;;;;;16.13;12.30;;;;;;;;;;5047096;28;20025;-72
2022/05/03 04:39:37;;;;;;;16.83;13.57;;;;;;;;;;5032010;28;20029;-73
2022/05/03 04:42:04;;;;;;;16.03;13.17;;;;;;;;;;5032815;28;20037;-72
2022/05/03 04:44:31;;;;;;;15.43;11.97;;;;;;;;;;5033486;28;20124;-72
2022/05/03 04:46:58;;;;;;;16.00;12.00;;;;;;;;;;5051563;28;20029;-72
2022/05/03 04:49:24;;;;;;;15.40;11.43;;;;;;;;;;5053193;28;20105;-72
2022/05/03 04:51:51;;;;;;;17.60;11.77;;;;;;;;;;5032006;28;20473;-72
2022/05/03 04:54:18;;;;;;;25.60;13.67;;;;;;;;;;5028007;28;20028;-72
2022/05/03 04:56:52;;;;;;;14.87;11.50;;;;;;;;;;5043367;28;20427;-72
2022/05/03 04:59:18;;;;;;;14.73;11.75;;;;;;;;;;5031410;28;20033;-72
2022/05/03 05:01:45;;;;;;;19.27;14.17;;;;;;;;;;5028190;28;20037;-72
2022/05/03 05:04:12;;;;;;;17.20;12.67;;;;;;;;;;5033163;28;20033;-72
2022/05/03 05:06:39;;;;;;;17.53;13.90;;;;;;;;;;5033830;28;20021;-72
2022/05/03 05:09:05;;;;;;;14.80;11.97;;;;;;;;;;5032793;28;20096;-72
2022/05/03 05:11:32;;;;;;;17.57;13.03;;;;;;;;;;5032841;28;20029;-72
2022/05/03 05:13:59;;;;;;;18.53;13.27;;;;;;;;;;5032264;28;20484;-72
2022/05/03 05:16:26;;;;;;;19.23;13.80;;;;;;;;;;5036891;28;20032;-72
2022/05/03 05:18:53;;;;;;;18.33;11.83;;;;;;;;;;5045857;28;20099;-72
2022/05/03 05:21:19;;;;;;;15.57;11.30;;;;;;;;;;5047552;28;20037;-72
2022/05/03 05:23:46;;;;;;;15.47;10.83;;;;;;;;;;5029138;28;20028;-72
2022/05/03 05:26:13;;;;;;;16.17;11.53;;;;;;;;;;5040722;28;20021;-72
2022/05/03 05:28:39;;;;;;;17.77;12.27;;;;;;;;;;5052545;28;20021;-72
2022/05/03 05:31:07;;;;;;;22.40;13.73;;;;;;;;;;5051931;28;20503;-72
2022/05/03 05:33:34;;;;;;;18.50;13.37;;;;;;;;;;5034737;28;20032;-72
2022/05/03 05:36:00;;;;;;;17.73;12.77;;;;;;;;;;5032561;28;20021;-72
2022/05/03 05:38:27;;;;;;;19.90;14.30;;;;;;;;;;5033434;28;20468;-72
2022/05/03 05:40:54;;;;;;;17.93;14.10;;;;;;;;;;5047127;28;20068;-72
2022/05/03 05:43:20;;;;;;;19.23;14.40;;;;;;;;;;5047110;28;20511;-72
2022/05/03 05:45:48;;;;;;;17.13;12.93;;;;;;;;;;5046110;28;20037;-71
2022/05/03 05:48:15;;;;;;;16.10;12.47;;;;;;;;;;5050945;28;20037;-71
2022/05/03 05:50:42;;;;;;;17.87;12.40;;;;;;;;;;5041708;28;20030;-72
2022/05/03 05:55:54;;;;;;;21.65;15.70;;;;;;;;;;5050845;28;20392;-72
2022/05/03 05:58:21;;;;;;;18.97;14.97;;;;;;;;;;5052117;28;20037;-72
2022/05/03 06:00:48;;;;;;;19.70;14.43;;;;;;;;;;5047174;28;20495;-72
2022/05/03 06:03:15;;;;;;;17.73;12.83;;;;;;;;;;5036395;28;20615;-71
2022/05/03 06:05:42;;;;;;;17.70;13.37;;;;;;;;;;5027179;28;20057;-72
2022/05/03 06:08:09;;;;;;;17.23;13.73;;;;;;;;;;5028202;28;20033;-72
2022/05/03 06:10:36;;;;;;;17.67;13.87;;;;;;;;;;5034756;28;20057;-72
2022/05/03 06:13:03;;;;;;;17.23;13.53;;;;;;;;;;5034938;28;20021;-74
2022/05/03 06:15:30;;;;;;;20.47;14.10;;;;;;;;;;5034490;28;20033;-71
2022/05/03 06:17:56;;;;;;;17.07;14.20;;;;;;;;;;5035944;28;20139;-71
2022/05/03 06:20:23;;;;;;;18.03;14.93;;;;;;;;;;5051904;28;20055;-74
2022/05/03 06:22:50;;;;;;;20.27;14.50;;;;;;;;;;5041261;28;20451;-73
2022/05/03 06:25:17;;;;;;;19.80;14.33;;;;;;;;;;5031792;28;20038;-74
2022/05/03 06:27:43;;;;;;;17.17;13.63;;;;;;;;;;5030805;28;20029;-74
2022/05/03 06:30:11;;;;;;;18.13;13.07;;;;;;;;;;5047262;28;20025;-74
2022/05/03 06:32:37;;;;;;;17.63;12.83;;;;;;;;;;5053423;28;20017;-73
2022/05/03 06:35:04;;;;;;;15.90;12.20;;;;;;;;;;5055519;28;20017;-74
2022/05/03 06:37:36;;;;;;;17.93;13.07;;;;;;;;;;5036788;28;20033;-73
2022/05/03 06:40:03;;;;;;;17.67;12.83;;;;;;;;;;5036443;28;20034;-74
2022/05/03 06:42:35;;;;;;;16.47;13.20;;;;;;;;;;5035326;28;20033;-74
2022/05/03 06:45:01;;;;;;;19.17;13.30;;;;;;;;;;5032148;28;20030;-74
2022/05/03 06:47:28;;;;;;;16.90;12.83;;;;;;;;;;5030124;28;20049;-74
2022/05/03 06:49:55;;;;;;;18.70;13.50;;;;;;;;;;5042099;28;20430;-74
2022/05/03 06:52:23;;;;;;;22.93;15.47;;;;;;;;;;5049821;28;20040;-74
2022/05/03 06:54:51;;;;;;;19.97;15.93;;;;;;;;;;5052611;28;20021;-73
2022/05/03 06:57:18;;;;;;;15.73;12.60;;;;;;;;;;5055277;28;20021;-76
2022/05/03 06:59:45;;;;;;;15.50;12.33;;;;;;;;;;5051354;28;20032;-74
2022/05/03 07:02:12;;;;;;;18.20;13.10;;;;;;;;;;5035315;28;20131;-73
2022/05/03 07:04:39;;;;;;;22.53;15.60;;;;;;;;;;5035278;28;20049;-73
2022/05/03 07:07:05;;;;;;;18.13;13.20;;;;;;;;;;5033449;28;20029;-73
2022/05/03 07:09:32;;;;;;;17.27;14.30;;;;;;;;;;5029756;28;20029;-73
2022/05/03 07:11:59;;;;;;;19.17;15.23;;;;;;;;;;5034299;28;20116;-74
2022/05/03 07:14:25;;;;;;;16.67;13.03;;;;;;;;;;5049347;28;20037;-73
2022/05/03 07:16:52;;;;;;;20.97;14.47;;;;;;;;;;5033810;28;20108;-73
2022/05/03 07:24:49;;;;;;;16.73;14.03;;;;;;;;;;5053980;28;20299;-74
2022/05/03 07:27:16;;;;;;;21.20;15.17;;;;;;;;;;5049611;28;20476;-74
2022/05/03 07:29:44;;;;;;;26.43;15.47;;;;;;;;;;5051339;28;20032;-74
2022/05/03 07:32:11;;;;;;;21.83;16.27;;;;;;;;;;5041143;28;20075;-74
2022/05/03 07:34:37;;;;;;;19.83;15.57;;;;;;;;;;5032744;28;20167;-74
2022/05/03 07:37:04;;;;;;;21.13;15.50;;;;;;;;;;5037448;28;20051;-74
2022/05/03 07:39:31;;;;;;;20.80;15.77;;;;;;;;;;5051837;28;20111;-74
2022/05/03 07:41:58;;;;;;;20.60;14.73;;;;;;;;;;5048628;28;20037;-76
2022/05/03 07:44:24;;;;;;;18.30;15.27;;;;;;;;;;5034558;28;20034;-74
2022/05/03 07:46:51;;;;;;;21.87;14.77;;;;;;;;;;5035552;28;20025;-73
2022/05/03 07:49:18;;;;;;;20.67;15.03;;;;;;;;;;5054277;28;20075;-73
2022/05/03 07:51:44;;;;;;;17.53;14.27;;;;;;;;;;5048151;28;20033;-74
2022/05/03 07:54:11;;;;;;;18.63;16.17;;;;;;;;;;5046565;28;20032;-74
2022/05/03 07:56:38;;;;;;;20.53;15.93;;;;;;;;;;5048604;28;20503;-74
2022/05/03 07:59:06;;;;;;;20.07;14.80;;;;;;;;;;5033522;28;20037;-76
2022/05/03 08:01:33;;;;;;;20.23;16.20;;;;;;;;;;5031617;28;20453;-74
2022/05/03 08:04:00;;;;;;;18.23;15.10;;;;;;;;;;5043367;28;20029;-73
2022/05/03 08:06:27;;;;;;;19.30;16.10;;;;;;;;;;5034185;28;20028;-74
2022/05/03 08:08:55;;;;;;;22.33;15.93;;;;;;;;;;5041561;28;20090;-74
2022/05/03 08:11:22;;;;;;;18.33;15.50;;;;;;;;;;5053897;28;20025;-74
2022/05/03 08:13:49;;;;;;;27.23;16.97;;;;;;;;;;5046540;28;20084;-74
2022/05/03 08:16:20;;;;;;;22.73;17.43;;;;;;;;;;5028064;28;20049;-75
2022/05/03 08:18:48;;;;;;;22.27;15.77;;;;;;;;;;5032626;28;20021;-74
2022/05/03 08:21:15;;;;;;;19.47;16.23;;;;;;;;;;5028257;28;20034;-74
2022/05/03 08:23:42;;;;;;;19.07;15.93;;;;;;;;;;5030065;28;20431;-73
2022/05/03 08:26:09;;;;;;;21.27;15.80;;;;;;;;;;5051799;28;20033;-74
2022/05/03 08:28:35;;;;;;;18.67;14.97;;;;;;;;;;5049193;28;20033;-73
2022/05/03 08:31:03;;;;;;;21.40;15.90;;;;;;;;;;5048107;28;20025;-76
2022/05/03 08:33:30;;;;;;;20.43;15.87;;;;;;;;;;5051443;28;20036;-74
2022/05/03 08:35:56;;;;;;;21.97;17.33;;;;;;;;;;5051436;28;20029;-74
2022/05/03 08:43:53;;;;;;;;;;;;;;;;;;5028525;28;20538;-74
2022/05/03 08:46:21;;;;;;;19.07;15.00;;;;;;;;;;5030141;28;19905;-74
2022/05/03 08:48:50;;;;;;;18.57;15.10;;;;;;;;;;5045330;28;20028;-74
2022/05/03 08:51:17;;;;;;;22.47;15.10;;;;;;;;;;5052878;28;20024;-74
2022/05/03 08:53:44;;;;;;;23.43;16.73;;;;;;;;;;5053004;28;20025;-74
2022/05/03 08:56:11;;;;;;;20.93;16.90;;;;;;;;;;5052925;28;20036;-75
2022/05/03 08:58:39;;;;;;;22.63;17.30;;;;;;;;;;5037918;28;20053;-74
2022/05/03 09:01:06;;;;;;;23.40;18.13;;;;;;;;;;5027730;28;20124;-73
2022/05/03 09:03:33;;;;;;;19.73;15.80;;;;;;;;;;5028455;28;20511;-73
2022/05/03 09:06:00;;;;;;;23.37;17.00;;;;;;;;;;5027943;28;20013;-73
2022/05/03 09:08:27;;;;;;;20.60;15.67;;;;;;;;;;5029041;28;20021;-74
2022/05/03 09:10:54;;;;;;;18.57;14.63;;;;;;;;;;5032800;28;20026;-73
2022/05/03 09:13:22;;;;;;;20.77;15.93;;;;;;;;;;5041997;28;20029;-75
2022/05/03 09:15:55;;;;;;;19.93;15.07;;;;;;;;;;5052584;28;20037;-74
2022/05/03 09:18:31;;;;;;;19.17;14.53;;;;;;;;;;5052827;28;20423;-74
2022/05/03 09:23:49;;;;;;;17.93;15.03;;;;;;;;;;5034207;28;20053;-73
2022/05/03 09:26:18;;;;;;;18.53;14.97;;;;;;;;;;5027123;28;20099;-74
2022/05/03 09:28:46;;;;;;;19.33;15.27;;;;;;;;;;5027157;28;20029;-74
2022/05/03 09:31:12;;;;;;;23.10;17.97;;;;;;;;;;5029892;28;20061;-74
2022/05/03 09:33:39;;;;;;;20.80;16.33;;;;;;;;;;5044048;28;20025;-73
2022/05/03 09:36:10;;;;;;;25.37;18.10;;;;;;;;;;5052493;28;20071;-73
2022/05/03 09:38:46;;;;;;;18.87;15.60;;;;;;;;;;5052307;28;20533;-74
2022/05/03 09:41:16;;;;;;;19.93;15.03;;;;;;;;;;5052348;28;20021;-74
2022/05/03 09:44:02;;;;;;;20.23;15.10;;;;;;;;;;5035654;28;20490;-74
2022/05/03 09:46:30;;;;;;;19.75;15.07;;;;;;;;;;5026718;28;20053;-74
2022/05/03 09:48:57;;;;;;;21.63;16.07;;;;;;;;;;5026934;28;20036;-74
2022/05/03 09:51:24;;;;;;;20.50;15.83;;;;;;;;;;5027009;28;20029;-74
2022/05/03 09:53:57;;;;;;;21.77;17.17;;;;;;;;;;5040304;28;20032;-73
2022/05/03 09:56:26;;;;;;;21.17;16.80;;;;;;;;;;5034087;28;20030;-73
2022/05/03 09:58:57;;;;;;;20.07;16.47;;;;;;;;;;5032344;28;20026;-73
2022/05/03 10:01:23;;;;;;;22.13;16.83;;;;;;;;;;5032402;28;20376;-73
2022/05/03 10:03:50;;;;;;;24.97;18.17;;;;;;;;;;5032102;28;20029;-73
2022/05/03 10:06:17;;;;;;;22.73;17.93;;;;;;;;;;5027899;28;20060;-73
2022/05/03 10:08:46;;;;;;;22.33;16.97;;;;;;;;;;5027612;28;20599;-73
2022/05/03 10:11:13;;;;;;;22.13;17.57;;;;;;;;;;5026878;28;20025;-73
2022/05/03 10:13:40;;;;;;;21.67;16.77;;;;;;;;;;5026733;28;20025;-74
2022/05/03 10:21:39;;;;;;;21.67;16.53;;;;;;;;;;5051966;28;20071;-74
2022/05/03 10:24:10;;;;;;;21.40;17.57;;;;;;;;;;5050123;28;20043;-73
2022/05/03 10:26:56;;;;;;;23.13;18.53;;;;;;;;;;5051995;28;20116;-74
2022/05/03 10:29:23;;;;;;;26.83;20.30;;;;;;;;;;5046389;28;20760;-74
2022/05/03 10:31:54;;;;;;;21.63;16.93;;;;;;;;;;5046361;28;20043;-74
2022/05/03 10:34:39;;;;;;;19.90;16.37;;;;;;;;;;5031006;28;20083;-74
2022/05/03 10:37:06;;;;;;;26.50;18.02;;;;;;;;;;5026912;28;20065;-73
2022/05/03 10:39:33;;;;;;;23.33;18.07;;;;;;;;;;5031904;28;20026;-73
2022/05/03 10:42:12;;;;;;;22.70;17.90;;;;;;;;;;5031773;28;20033;-74
2022/05/03 10:44:56;;;;;;;21.10;16.83;;;;;;;;;;5048471;28;20017;-73
2022/05/03 10:47:41;;;;;;;21.70;16.25;;;;;;;;;;5051516;28;20031;-73
2022/05/03 10:50:17;;;;;;;28.20;19.15;;;;;;;;;;5048965;28;20021;-74
2022/05/03 10:52:46;;;;;;;24.80;18.20;;;;;;;;;;5044260;28;20053;-75
2022/05/03 10:55:14;;;;;;;25.77;17.67;;;;;;;;;;5028320;28;20388;-74
2022/05/03 10:57:58;;;;;;;23.10;17.83;;;;;;;;;;5030037;28;20029;-74
2022/05/03 11:00:44;;;;;;;31.60;20.98;;;;;;;;;;5032718;28;20026;-74
2022/05/03 11:03:20;;;;;;;22.85;18.00;;;;;;;;;;5036374;28;20022;-73
2022/05/03 11:06:06;;;;;;;22.53;16.73;;;;;;;;;;5035439;28;20037;-73
2022/05/03 11:08:34;;;;;;;22.37;16.13;;;;;;;;;;5034966;28;20414;-73
2022/05/03 11:11:01;;;;;;;24.60;18.23;;;;;;;;;;5034634;28;20136;-74
2022/05/03 11:13:43;;;;;;;23.23;18.23;;;;;;;;;;5047036;28;20025;-74
2022/05/03 11:16:19;;;;;;;21.93;17.57;;;;;;;;;;5049782;28;20227;-72
2022/05/03 11:18:46;;;;;;;24.70;18.40;;;;;;;;;;5049462;28;20021;-72
2022/05/03 11:21:16;;;;;;;26.80;18.07;;;;;;;;;;5049406;28;20067;-72
2022/05/03 11:23:49;;;;;;;23.63;17.50;;;;;;;;;;5035155;28;20532;-72
2022/05/03 11:26:17;;;;;;;22.40;16.77;;;;;;;;;;5034725;28;20026;-72
2022/05/03 11:28:46;;;;;;;21.90;17.10;;;;;;;;;;5034812;28;20045;-72
2022/05/03 11:31:13;;;;;;;27.00;18.57;;;;;;;;;;5034805;28;20061;-72
2022/05/03 11:33:50;;;;;;;22.37;17.67;;;;;;;;;;5052679;28;20025;-72
2022/05/03 11:36:16;;;;;;;34.30;19.00;;;;;;;;;;5049209;28;20434;-72
2022/05/03 11:38:43;;;;;;;27.40;18.17;;;;;;;;;;5049181;28;20075;-72
2022/05/03 11:41:10;;;;;;;23.23;17.53;;;;;;;;;;5049074;28;20422;-72
2022/05/03 11:43:37;;;;;;;24.63;16.60;;;;;;;;;;5047266;28;20079;-72
2022/05/03 11:46:04;;;;;;;25.00;17.73;;;;;;;;;;5041116;28;20492;-72
2022/05/03 11:48:31;;;;;;;23.23;17.80;;;;;;;;;;5034531;28;20346;-72
2022/05/03 11:56:34;;;;;;;26.37;17.30;;;;;;;;;;5023933;28;20088;-72
2022/05/03 11:59:01;;;;;;;20.63;15.20;;;;;;;;;;5048387;28;20426;-72
2022/05/03 12:01:33;;;;;;;29.13;20.53;;;;;;;;;;5048638;28;20032;-72
2022/05/03 12:04:02;;;;;;;27.27;18.60;;;;;;;;;;5028856;28;20068;-72
2022/05/03 12:06:44;;;;;;;24.37;18.17;;;;;;;;;;5030177;28;20408;-72
2022/05/03 12:09:17;;;;;;;22.80;17.47;;;;;;;;;;5034096;28;20416;-74
2022/05/03 12:14:45;;;;;;;29.63;20.13;;;;;;;;;;5036227;28;20795;-72
2022/05/03 12:17:11;;;;;;;26.13;18.37;;;;;;;;;;5053492;28;20103;-73
2022/05/03 12:19:38;;;;;;;28.90;20.17;;;;;;;;;;5050551;28;20021;-72
2022/05/03 12:22:15;;;;;;;29.37;20.93;;;;;;;;;;5048234;28;20448;-72
2022/05/03 12:24:47;;;;;;;28.03;19.87;;;;;;;;;;5045874;28;20028;-72
2022/05/03 12:27:16;;;;;;;28.37;18.00;;;;;;;;;;5028258;28;20382;-72
2022/05/03 12:29:46;;;;;;;27.10;19.70;;;;;;;;;;5031556;28;20104;-73
2022/05/03 12:32:14;;;;;;;27.53;19.13;;;;;;;;;;5050900;28;20032;-72
2022/05/03 12:34:42;;;;;;;29.70;20.20;;;;;;;;;;5051377;28;20429;-72
2022/05/03 12:37:14;;;;;;;33.20;21.03;;;;;;;;;;5033635;28;20029;-72
2022/05/03 12:39:41;;;;;;;32.27;20.80;;;;;;;;;;5033464;28;20025;-72
2022/05/03 12:42:12;;;;;;;35.10;22.63;;;;;;;;;;5029356;28;20110;-72
2022/05/03 12:44:52;;;;;;;31.00;20.57;;;;;;;;;;5028495;28;20100;-72
2022/05/03 12:47:19;;;;;;;39.37;23.77;;;;;;;;;;5047985;28;20024;-72
2022/05/03 12:49:47;;;;;;;36.17;24.87;;;;;;;;;;5047832;28;20024;-72
2022/05/03 12:52:13;;;;;;;29.77;22.30;;;;;;;;;;5051468;28;20036;-71
2022/05/03 12:54:41;;;;;;;32.50;23.60;;;;;;;;;;5051868;28;20025;-72
2022/05/03 12:59:57;;;;;;;29.30;22.27;;;;;;;;;;5033429;28;20044;-72
2022/05/03 13:02:24;;;;;;;34.90;23.50;;;;;;;;;;5033089;28;20033;-72
2022/05/03 13:04:51;;;;;;;34.50;23.00;;;;;;;;;;5029862;28;20425;-72
2022/05/03 13:07:18;;;;;;;36.23;25.33;;;;;;;;;;5047589;28;20017;-71
2022/05/03 13:09:44;;;;;;;37.93;24.20;;;;;;;;;;5046988;28;20036;-72
2022/05/03 13:12:12;;;;;;;41.30;24.50;;;;;;;;;;5047301;28;20357;-72
2022/05/03 13:14:39;;;;;;;34.00;23.87;;;;;;;;;;5050872;28;20483;-72
2022/05/03 13:17:06;;;;;;;32.73;22.80;;;;;;;;;;5032838;28;20104;-72
2022/05/03 13:19:33;;;;;;;31.27;22.60;;;;;;;;;;5033054;28;20021;-72
2022/05/03 13:22:00;;;;;;;30.07;22.47;;;;;;;;;;5032744;28;20041;-72
2022/05/03 13:24:26;;;;;;;30.63;21.97;;;;;;;;;;5032221;28;20036;-73
2022/05/03 13:26:54;;;;;;;31.47;22.77;;;;;;;;;;5027981;28;20112;-72
2022/05/03 13:29:21;;;;;;;27.60;20.57;;;;;;;;;;5036234;28;20025;-72
2022/05/03 13:31:48;;;;;;;25.67;20.40;;;;;;;;;;5047183;28;20029;-72
2022/05/03 13:34:15;;;;;;;27.17;20.47;;;;;;;;;;5047197;28;20060;-72
2022/05/03 13:42:12;;;;;;;32.08;19.98;;;;;;;;;;5032410;28;20106;-72
2022/05/03 13:44:40;;;;;;;26.70;20.10;;;;;;;;;;5032315;28;20021;-73
2022/05/03 13:47:08;;;;;;;27.20;21.30;;;;;;;;;;5032427;28;20028;-72
2022/05/03 13:49:35;;;;;;;24.47;18.93;;;;;;;;;;5036663;28;20060;-73
2022/05/03 13:52:02;;;;;;;26.97;19.43;;;;;;;;;;5046855;28;20562;-73
2022/05/03 13:54:28;;;;;;;25.43;19.10;;;;;;;;;;5046794;28;20063;-72
2022/05/03 13:56:55;;;;;;;30.47;21.37;;;;;;;;;;5046657;28;20115;-72
2022/05/03 13:59:22;;;;;;;23.57;19.40;;;;;;;;;;5042451;28;20025;-72
2022/05/03 14:01:49;;;;;;;26.47;19.17;;;;;;;;;;5032160;28;20033;-72
2022/05/03 14:04:16;;;;;;;25.90;20.20;;;;;;;;;;5032272;28;20025;-72
2022/05/03 14:06:43;;;;;;;27.87;21.70;;;;;;;;;;5031721;28;20181;-72
2022/05/03 14:09:09;;;;;;;27.47;21.03;;;;;;;;;;5034486;28;20044;-71
2022/05/03 14:11:36;;;;;;;29.83;20.50;;;;;;;;;;5027089;28;20029;-71
2022/05/03 14:14:03;;;;;;;26.67;20.23;;;;;;;;;;5026618;28;20033;-71
2022/05/03 14:16:30;;;;;;;25.30;18.70;;;;;;;;;;5008976;28;20385;-71
2022/05/03 14:19:01;;;;;;;23.80;18.87;;;;;;;;;;5040181;28;20083;-71
2022/05/03 14:21:27;;;;;;;23.93;18.50;;;;;;;;;;5050579;28;20419;-72
2022/05/03 14:23:54;;;;;;;25.97;19.90;;;;;;;;;;5049887;28;20029;-72
2022/05/03 14:26:21;;;;;;;33.10;23.67;;;;;;;;;;5051901;28;20029;-71
2022/05/03 14:28:49;;;;;;;27.07;21.03;;;;;;;;;;5051820;28;20494;-71
2022/05/03 14:31:16;;;;;;;27.33;20.80;;;;;;;;;;5055786;28;20029;-73
2022/05/03 14:33:43;;;;;;;24.10;18.33;;;;;;;;;;5038598;28;20476;-71
2022/05/03 14:36:10;;;;;;;27.20;19.13;;;;;;;;;;5031463;28;20026;-71
2022/05/03 14:38:36;;;;;;;22.03;16.33;;;;;;;;;;5030852;28;20025;-72
2022/05/03 14:41:03;;;;;;;22.57;17.07;;;;;;;;;;5030327;28;20108;-71
2022/05/03 14:43:30;;;;;;;23.80;18.13;;;;;;;;;;5034125;28;20112;-71
2022/05/03 14:45:57;;;;;;;24.10;19.17;;;;;;;;;;5035650;28;20033;-73
2022/05/03 14:48:24;;;;;;;23.57;17.87;;;;;;;;;;5044781;28;20064;-70
2022/05/03 14:50:50;;;;;;;24.70;18.00;;;;;;;;;;5055188;28;20032;-73
2022/05/03 14:53:17;;;;;;;28.50;20.43;;;;;;;;;;5055432;28;20079;-71
2022/05/03 15:02:52;;;;;;;24.10;17.83;;;;;;;;;;5050795;28;20514;-71
2022/05/03 15:04:01;;;;;;;25.10;18.67;;;;;;;;;;5029838;28;20049;-71
2022/05/03 15:06:28;;;;;;;20.67;17.20;;;;;;;;;;5035155;28;20048;-72
2022/05/03 15:08:55;;;;;;;24.90;19.03;;;;;;;;;;5047933;28;20112;-71
2022/05/03 15:11:22;;;;;;;32.50;17.97;;;;;;;;;;5049420;28;20163;-71
2022/05/03 15:13:48;;;;;;;26.03;19.90;;;;;;;;;;5035174;28;20033;-73
2022/05/03 15:16:15;;;;;;;26.47;18.53;;;;;;;;;;5034925;28;20053;-75
2022/05/03 15:18:45;;;;;;;25.57;17.53;;;;;;;;;;5029351;28;20407;-72
2022/05/03 15:21:12;;;;;;;25.83;18.50;;;;;;;;;;5030913;28;20029;-71
2022/05/03 15:26:24;;;;;;;24.70;19.33;;;;;;;;;;5049233;28;20040;-73